Time;durP1;ratioP1;P1;durP2;ratioP2;P2;SDS_P1;SDS_P2;PMS_P1;PMS_P2;Temp;Humidity;BMP_temperature;BMP_pressure;BME280_temperature;BME280_humidity;BME280_pressure;Samples;Min_cycle;Max_cycle;Signal;HPM_P1;HPM_P2
2021/05/08 00:00:52;;;;;;;4.38;2.65;;;;;;;;;;5050693;28;20225;-83
2021/05/08 00:03:19;;;;;;;4.15;2.30;;;;;;;;;;5050656;28;20458;-83
2021/05/08 00:05:47;;;;;;;3.28;2.30;;;;;;;;;;5050462;28;20113;-83
2021/05/08 00:08:13;;;;;;;3.40;2.40;;;;;;;;;;5050117;28;20045;-83
2021/05/08 00:10:39;;;;;;;2.90;2.47;;;;;;;;;;5050623;28;20112;-83
2021/05/08 00:13:05;;;;;;;7.43;3.10;;;;;;;;;;5050633;28;20038;-83
2021/05/08 00:15:31;;;;;;;4.53;2.55;;;;;;;;;;5050336;28;20190;-84
2021/05/08 00:17:57;;;;;;;4.35;2.50;;;;;;;;;;5034973;28;20190;-83
2021/05/08 00:20:23;;;;;;;4.78;2.42;;;;;;;;;;5050147;28;20037;-83
2021/05/08 00:22:50;;;;;;;3.30;2.33;;;;;;;;;;5050304;28;20034;-83
2021/05/08 00:25:16;;;;;;;4.65;2.50;;;;;;;;;;5050127;28;20048;-83
2021/05/08 00:27:42;;;;;;;4.35;2.65;;;;;;;;;;5050162;28;20068;-83
2021/05/08 00:30:08;;;;;;;4.95;2.90;;;;;;;;;;5050081;28;20038;-84
2021/05/08 00:32:35;;;;;;;4.15;2.75;;;;;;;;;;5034715;28;20123;-83
2021/05/08 00:35:01;;;;;;;2.55;2.33;;;;;;;;;;5049696;28;20049;-83
2021/05/08 00:37:28;;;;;;;4.13;2.17;;;;;;;;;;5034541;28;20041;-83
2021/05/08 00:39:54;;;;;;;6.25;3.25;;;;;;;;;;5049661;28;20056;-84
2021/05/08 00:42:20;;;;;;;3.67;2.33;;;;;;;;;;5049877;28;20076;-84
2021/05/08 00:44:48;;;;;;;3.17;2.58;;;;;;;;;;5049717;28;20048;-84
2021/05/08 00:47:14;;;;;;;4.10;2.85;;;;;;;;;;5049695;28;20120;-84
2021/05/08 00:49:40;;;;;;;4.88;3.10;;;;;;;;;;5034495;28;20082;-83
2021/05/08 00:52:06;;;;;;;4.63;2.60;;;;;;;;;;5048817;28;20041;-84
2021/05/08 00:54:34;;;;;;;6.35;2.95;;;;;;;;;;5049419;28;20069;-84
2021/05/08 00:57:00;;;;;;;5.32;3.00;;;;;;;;;;5049550;28;20463;-84
2021/05/08 00:59:27;;;;;;;5.30;2.70;;;;;;;;;;5049601;28;20485;-83
2021/05/08 01:01:53;;;;;;;3.95;3.05;;;;;;;;;;5034188;28;20044;-84
2021/05/08 01:04:19;;;;;;;3.58;2.50;;;;;;;;;;5049455;28;20041;-83
2021/05/08 01:06:46;;;;;;;4.05;2.78;;;;;;;;;;5049329;28;20111;-83
2021/05/08 01:09:12;;;;;;;4.38;2.63;;;;;;;;;;5049548;28;20037;-86
2021/05/08 01:11:39;;;;;;;5.35;2.72;;;;;;;;;;5049230;28;20124;-83
2021/05/08 01:14:06;;;;;;;3.85;2.78;;;;;;;;;;5049345;28;20033;-84
2021/05/08 01:16:32;;;;;;;6.85;3.28;;;;;;;;;;5049006;28;20065;-83
2021/05/08 01:18:59;;;;;;;4.75;2.70;;;;;;;;;;5033802;28;20073;-83
2021/05/08 01:21:25;;;;;;;4.20;2.55;;;;;;;;;;5049099;28;20036;-84
2021/05/08 01:23:51;;;;;;;4.65;2.80;;;;;;;;;;5033726;28;20068;-83
2021/05/08 01:26:17;;;;;;;5.93;3.08;;;;;;;;;;5033582;28;20093;-83
2021/05/08 01:28:43;;;;;;;6.50;3.20;;;;;;;;;;5049059;28;20116;-83
2021/05/08 01:31:09;;;;;;;5.05;3.10;;;;;;;;;;5049016;28;20039;-82
2021/05/08 01:33:35;;;;;;;7.20;3.13;;;;;;;;;;5033574;28;20123;-83
2021/05/08 01:36:02;;;;;;;5.75;2.78;;;;;;;;;;5033360;28;20076;-83
2021/05/08 01:38:28;;;;;;;6.55;2.85;;;;;;;;;;5048655;28;20041;-84
2021/05/08 01:41:00;;;;;;;4.85;2.90;;;;;;;;;;5048382;28;20049;-84
2021/05/08 01:43:26;;;;;;;4.55;2.97;;;;;;;;;;5033405;28;20029;-83
2021/05/08 01:45:54;;;;;;;5.28;3.38;;;;;;;;;;5048325;28;20056;-83
2021/05/08 01:48:20;;;;;;;5.53;3.03;;;;;;;;;;5048487;28;20485;-83
2021/05/08 01:50:46;;;;;;;4.40;2.67;;;;;;;;;;5048556;28;20484;-84
2021/05/08 01:53:13;;;;;;;4.43;3.22;;;;;;;;;;5048613;28;20038;-83
2021/05/08 01:55:39;;;;;;;6.03;3.42;;;;;;;;;;5048544;28;20038;-84
2021/05/08 01:58:05;;;;;;;5.63;3.03;;;;;;;;;;5048294;28;20041;-84
2021/05/08 02:00:36;;;;;;;6.80;3.40;;;;;;;;;;5048278;28;20043;-84
2021/05/08 02:03:02;;;;;;;5.20;3.13;;;;;;;;;;5048234;28;20120;-83
2021/05/08 02:05:28;;;;;;;7.82;3.85;;;;;;;;;;5032934;28;20046;-83
2021/05/08 02:07:54;;;;;;;10.00;3.63;;;;;;;;;;5032834;28;20042;-83
2021/05/08 02:10:20;;;;;;;6.35;3.85;;;;;;;;;;5032864;28;20041;-83
2021/05/08 02:12:46;;;;;;;5.35;3.60;;;;;;;;;;5031397;28;20507;-83
2021/05/08 02:15:14;;;;;;;6.97;3.40;;;;;;;;;;5048200;28;20124;-83
2021/05/08 02:17:40;;;;;;;9.82;4.53;;;;;;;;;;5048087;28;20083;-83
2021/05/08 02:20:06;;;;;;;8.82;4.32;;;;;;;;;;5032673;28;20473;-83
2021/05/08 02:22:33;;;;;;;11.57;4.75;;;;;;;;;;5032678;28;20403;-82
2021/05/08 02:24:59;;;;;;;9.60;4.93;;;;;;;;;;5047832;28;20049;-82
2021/05/08 02:27:25;;;;;;;6.65;3.58;;;;;;;;;;5047745;28;20041;-84
2021/05/08 02:29:51;;;;;;;8.38;3.80;;;;;;;;;;5047913;28;20029;-83
2021/05/08 02:32:17;;;;;;;9.70;4.50;;;;;;;;;;5047857;28;20117;-84
2021/05/08 02:34:43;;;;;;;8.73;4.88;;;;;;;;;;5047926;28;20095;-83
2021/05/08 02:37:09;;;;;;;7.00;4.03;;;;;;;;;;5047685;28;20044;-83
2021/05/08 02:39:35;;;;;;;7.47;4.22;;;;;;;;;;5030929;28;20291;-84
2021/05/08 02:42:02;;;;;;;9.27;4.20;;;;;;;;;;5032303;28;20047;-83
2021/05/08 02:44:28;;;;;;;6.68;4.25;;;;;;;;;;5047683;28;20033;-83
2021/05/08 02:46:55;;;;;;;6.38;4.20;;;;;;;;;;5047429;28;20076;-83
2021/05/08 02:49:22;;;;;;;7.70;4.70;;;;;;;;;;5047588;28;20041;-83
2021/05/08 02:51:47;;;;;;;9.55;4.30;;;;;;;;;;5047580;28;20435;-83
2021/05/08 02:54:13;;;;;;;10.40;4.63;;;;;;;;;;5047718;28;20083;-83
2021/05/08 02:56:39;;;;;;;9.68;4.43;;;;;;;;;;5031912;28;20038;-83
2021/05/08 02:59:05;;;;;;;8.63;5.18;;;;;;;;;;5047477;28;20037;-84
2021/05/08 03:01:31;;;;;;;8.07;4.28;;;;;;;;;;5032092;28;20440;-84
2021/05/08 03:03:58;;;;;;;8.05;4.65;;;;;;;;;;5032122;28;20470;-84
2021/05/08 03:06:24;;;;;;;6.85;4.32;;;;;;;;;;5047318;28;20056;-83
2021/05/08 03:08:50;;;;;;;5.80;3.92;;;;;;;;;;5032034;28;20116;-82
2021/05/08 03:11:16;;;;;;;7.72;4.07;;;;;;;;;;5047379;28;20111;-84
2021/05/08 03:13:43;;;;;;;8.85;4.18;;;;;;;;;;5030803;28;20418;-83
2021/05/08 03:16:09;;;;;;;8.07;5.22;;;;;;;;;;5050430;28;20044;-83
2021/05/08 03:18:39;;;;;;;8.05;4.97;;;;;;;;;;5034877;28;20046;-83
2021/05/08 03:21:05;;;;;;;8.35;4.57;;;;;;;;;;5051296;28;20091;-83
2021/05/08 03:23:31;;;;;;;8.00;4.65;;;;;;;;;;5051349;28;20049;-83
2021/05/08 03:25:57;;;;;;;7.95;5.65;;;;;;;;;;5051044;28;20052;-84
2021/05/08 03:28:23;;;;;;;11.07;5.97;;;;;;;;;;5051234;28;20049;-84
2021/05/08 03:30:50;;;;;;;9.55;5.35;;;;;;;;;;5051182;28;20038;-83
2021/05/08 03:33:16;;;;;;;12.35;5.57;;;;;;;;;;5051266;28;20033;-83
2021/05/08 03:35:42;;;;;;;10.85;5.75;;;;;;;;;;5051049;28;20052;-84
2021/05/08 03:38:08;;;;;;;13.00;6.72;;;;;;;;;;5050880;28;20049;-83
2021/05/08 03:40:34;;;;;;;10.48;6.25;;;;;;;;;;5050664;28;20049;-83
2021/05/08 03:43:00;;;;;;;9.32;5.80;;;;;;;;;;5051020;28;20038;-83
2021/05/08 03:45:27;;;;;;;11.45;6.38;;;;;;;;;;5050892;28;20080;-83
2021/05/08 03:47:55;;;;;;;10.45;6.28;;;;;;;;;;5050526;28;20063;-83
2021/05/08 03:50:21;;;;;;;9.68;6.30;;;;;;;;;;5034166;28;20052;-84
2021/05/08 03:52:47;;;;;;;12.57;6.47;;;;;;;;;;5035430;28;20504;-83
2021/05/08 03:55:13;;;;;;;13.98;6.82;;;;;;;;;;5050708;28;20029;-83
2021/05/08 03:57:39;;;;;;;11.05;7.13;;;;;;;;;;5050725;28;20048;-83
2021/05/08 04:00:05;;;;;;;11.80;7.47;;;;;;;;;;5035279;28;20112;-83
2021/05/08 04:02:31;;;;;;;11.93;7.35;;;;;;;;;;5050520;28;20033;-84
2021/05/08 04:04:57;;;;;;;13.75;8.10;;;;;;;;;;5050620;28;20044;-83
2021/05/08 04:07:23;;;;;;;13.85;7.65;;;;;;;;;;5050482;28;20042;-83
2021/05/08 04:09:50;;;;;;;14.05;7.35;;;;;;;;;;5050648;28;20080;-82
2021/05/08 04:12:16;;;;;;;12.10;7.28;;;;;;;;;;5050612;28;20037;-82
2021/05/08 04:14:42;;;;;;;13.80;7.82;;;;;;;;;;5050350;28;20039;-81
2021/05/08 04:17:08;;;;;;;14.45;7.47;;;;;;;;;;5034872;28;20025;-83
2021/05/08 04:19:34;;;;;;;13.90;8.65;;;;;;;;;;5050189;28;20046;-83
2021/05/08 04:22:00;;;;;;;14.27;8.35;;;;;;;;;;5050096;28;20087;-84
2021/05/08 04:24:27;;;;;;;12.73;7.97;;;;;;;;;;5050176;28;20044;-83
2021/05/08 04:26:53;;;;;;;13.95;7.72;;;;;;;;;;5048612;28;20045;-84
2021/05/08 04:29:19;;;;;;;16.58;8.32;;;;;;;;;;5049958;28;20120;-83
2021/05/08 04:31:46;;;;;;;15.50;8.15;;;;;;;;;;5050123;28;20038;-83
2021/05/08 04:34:11;;;;;;;15.15;8.18;;;;;;;;;;5050045;28;20037;-83
2021/05/08 04:36:37;;;;;;;15.90;8.70;;;;;;;;;;5049665;28;20042;-84
2021/05/08 04:39:04;;;;;;;19.27;8.45;;;;;;;;;;5049611;28;20107;-82
2021/05/08 04:41:30;;;;;;;15.73;8.50;;;;;;;;;;5049801;28;20034;-84
2021/05/08 04:43:56;;;;;;;16.33;8.48;;;;;;;;;;5049976;28;20061;-84
2021/05/08 04:46:25;;;;;;;10.95;6.93;;;;;;;;;;5049780;28;20069;-84
2021/05/08 04:48:54;;;;;;;14.52;8.57;;;;;;;;;;5033427;28;20061;-83
2021/05/08 04:51:20;;;;;;;14.55;8.23;;;;;;;;;;5049634;28;20061;-84
2021/05/08 04:53:48;;;;;;;14.63;8.05;;;;;;;;;;5034484;28;20045;-84
2021/05/08 04:56:14;;;;;;;16.20;8.95;;;;;;;;;;5049472;28;20076;-83
2021/05/08 04:58:40;;;;;;;13.75;8.68;;;;;;;;;;5049660;28;20188;-84
2021/05/08 05:01:06;;;;;;;15.75;8.45;;;;;;;;;;5033132;28;20102;-84
2021/05/08 05:03:37;;;;;;;13.68;7.60;;;;;;;;;;5049086;28;20190;-84
2021/05/08 05:06:04;;;;;;;11.02;6.93;;;;;;;;;;5049281;28;20045;-83
2021/05/08 05:08:35;;;;;;;11.60;6.85;;;;;;;;;;5048783;28;20103;-83
2021/05/08 05:11:01;;;;;;;9.30;6.25;;;;;;;;;;5049319;28;20041;-83
2021/05/08 05:13:29;;;;;;;14.65;8.52;;;;;;;;;;5049016;28;20057;-82
2021/05/08 05:15:55;;;;;;;16.10;8.27;;;;;;;;;;5049193;28;20382;-83
2021/05/08 05:18:21;;;;;;;11.40;7.45;;;;;;;;;;5032611;28;20053;-83
2021/05/08 05:20:48;;;;;;;17.88;7.90;;;;;;;;;;5049283;28;20048;-83
2021/05/08 05:23:14;;;;;;;17.58;8.75;;;;;;;;;;5048987;28;20128;-83
2021/05/08 05:25:40;;;;;;;15.13;8.70;;;;;;;;;;5048983;28;20120;-83
2021/05/08 05:28:19;;;;;;;13.13;9.55;;;;;;;;;;5048893;28;20037;-83
2021/05/08 05:30:45;;;;;;;12.77;9.05;;;;;;;;;;5033435;28;20539;-83
2021/05/08 05:33:11;;;;;;;13.68;9.13;;;;;;;;;;5048940;28;20076;-84
2021/05/08 05:35:37;;;;;;;13.52;8.30;;;;;;;;;;5033462;28;20069;-83
2021/05/08 05:38:03;;;;;;;13.40;9.02;;;;;;;;;;5048408;28;20092;-83
2021/05/08 05:40:29;;;;;;;11.95;8.20;;;;;;;;;;5048601;28;20133;-83
2021/05/08 05:42:56;;;;;;;9.32;7.38;;;;;;;;;;5032399;28;20187;-83
2021/05/08 05:45:22;;;;;;;7.93;6.07;;;;;;;;;;5048645;28;20045;-84
2021/05/08 05:47:55;;;;;;;9.25;6.93;;;;;;;;;;5033452;28;20390;-84
2021/05/08 05:50:22;;;;;;;10.35;6.47;;;;;;;;;;5048654;28;20069;-84
2021/05/08 05:52:48;;;;;;;10.90;7.05;;;;;;;;;;5048743;28;20108;-83
2021/05/08 05:55:14;;;;;;;7.80;5.97;;;;;;;;;;5031857;28;20110;-84
2021/05/08 05:57:41;;;;;;;10.02;6.88;;;;;;;;;;5048210;28;20369;-84
2021/05/08 06:00:07;;;;;;;11.43;6.72;;;;;;;;;;5033010;28;20044;-84
2021/05/08 06:02:35;;;;;;;10.52;6.75;;;;;;;;;;5048113;28;20408;-85
2021/05/08 06:05:01;;;;;;;8.98;6.25;;;;;;;;;;5048450;28;20458;-83
2021/05/08 06:07:27;;;;;;;9.77;5.88;;;;;;;;;;5032830;28;20493;-84
2021/05/08 06:09:53;;;;;;;9.13;6.45;;;;;;;;;;5032979;28;20038;-84
2021/05/08 06:12:19;;;;;;;7.05;6.22;;;;;;;;;;5031540;28;20041;-85
2021/05/08 06:14:45;;;;;;;8.00;5.93;;;;;;;;;;5048491;28;20080;-84
2021/05/08 06:17:11;;;;;;;8.50;5.78;;;;;;;;;;5047995;28;20493;-85
2021/05/08 06:19:37;;;;;;;9.43;6.38;;;;;;;;;;5032744;28;20037;-84
2021/05/08 06:22:03;;;;;;;7.40;6.30;;;;;;;;;;5047979;28;20099;-85
2021/05/08 06:24:29;;;;;;;10.48;6.00;;;;;;;;;;5047956;28;20041;-84
2021/05/08 06:26:55;;;;;;;8.77;6.43;;;;;;;;;;5032529;28;20048;-84
2021/05/08 06:29:21;;;;;;;9.00;6.55;;;;;;;;;;5047938;28;20052;-84
2021/05/08 06:31:47;;;;;;;9.18;6.75;;;;;;;;;;5047834;28;20049;-84
2021/05/08 06:34:13;;;;;;;9.73;7.10;;;;;;;;;;5047883;28;20071;-84
2021/05/08 06:36:39;;;;;;;11.23;7.10;;;;;;;;;;5047707;28;20045;-82
2021/05/08 06:39:07;;;;;;;12.82;6.82;;;;;;;;;;5047615;28;20485;-85
2021/05/08 06:41:33;;;;;;;8.27;6.57;;;;;;;;;;5047578;28;20038;-85
2021/05/08 06:43:59;;;;;;;10.73;6.95;;;;;;;;;;5047736;28;20091;-85
2021/05/08 06:46:25;;;;;;;7.40;6.68;;;;;;;;;;5031093;28;20416;-85
2021/05/08 06:48:52;;;;;;;10.18;7.13;;;;;;;;;;5030716;28;20065;-84
2021/05/08 06:51:19;;;;;;;8.40;6.65;;;;;;;;;;5046890;28;20493;-84
2021/05/08 06:53:45;;;;;;;8.80;6.90;;;;;;;;;;5047517;28;20052;-84
2021/05/08 06:56:13;;;;;;;9.00;7.07;;;;;;;;;;5030770;28;20049;-85
2021/05/08 06:58:40;;;;;;;9.45;7.45;;;;;;;;;;5047377;28;20477;-84
2021/05/08 07:01:07;;;;;;;8.55;6.82;;;;;;;;;;5047492;28;20477;-85
2021/05/08 07:03:33;;;;;;;9.43;7.72;;;;;;;;;;5047408;28;20432;-83
2021/05/08 07:06:01;;;;;;;10.23;7.50;;;;;;;;;;5046953;28;20137;-84
2021/05/08 07:08:27;;;;;;;8.18;7.40;;;;;;;;;;5047407;28;20446;-85
2021/05/08 07:10:53;;;;;;;8.82;6.57;;;;;;;;;;5047066;28;20412;-85
2021/05/08 07:13:20;;;;;;;13.48;6.63;;;;;;;;;;5031995;28;20041;-84
2021/05/08 07:15:46;;;;;;;8.15;6.07;;;;;;;;;;5047322;28;20037;-84
2021/05/08 07:18:12;;;;;;;9.10;6.60;;;;;;;;;;5031820;28;20041;-84
2021/05/08 07:20:39;;;;;;;7.72;6.32;;;;;;;;;;5047248;28;20408;-85
2021/05/08 07:23:06;;;;;;;6.95;6.13;;;;;;;;;;5047102;28;20457;-84
2021/05/08 07:25:32;;;;;;;7.88;5.53;;;;;;;;;;5047041;28;20038;-84
2021/05/08 07:28:07;;;;;;;6.10;5.07;;;;;;;;;;5047078;28;20034;-84
2021/05/08 07:30:34;;;;;;;7.07;5.75;;;;;;;;;;5047057;28;20049;-84
2021/05/08 07:33:00;;;;;;;5.80;5.10;;;;;;;;;;5047222;28;20040;-85
2021/05/08 07:35:26;;;;;;;6.18;5.07;;;;;;;;;;5047136;28;20047;-84
2021/05/08 07:37:52;;;;;;;7.13;5.03;;;;;;;;;;5047119;28;20483;-85
2021/05/08 07:40:18;;;;;;;6.60;4.68;;;;;;;;;;5046906;28;20081;-85
2021/05/08 07:42:46;;;;;;;6.05;5.00;;;;;;;;;;5030650;28;20129;-84
2021/05/08 07:45:12;;;;;;;6.00;5.40;;;;;;;;;;5047222;28;20072;-84
2021/05/08 07:47:39;;;;;;;6.88;5.45;;;;;;;;;;5030373;28;20115;-84
2021/05/08 07:50:07;;;;;;;6.88;5.10;;;;;;;;;;5047003;28;20152;-85
2021/05/08 07:52:35;;;;;;;8.90;5.35;;;;;;;;;;5030037;28;20057;-85
2021/05/08 07:55:01;;;;;;;8.38;5.85;;;;;;;;;;5046835;28;20033;-84
2021/05/08 07:57:29;;;;;;;8.05;5.53;;;;;;;;;;5046756;28;20076;-84
2021/05/08 08:00:13;;;;;;;8.07;5.32;;;;;;;;;;5031636;28;20432;-84
2021/05/08 08:02:40;;;;;;;7.32;5.13;;;;;;;;;;5050587;28;20045;-85
2021/05/08 08:05:06;;;;;;;6.55;5.03;;;;;;;;;;5050484;28;20037;-85
2021/05/08 08:07:32;;;;;;;4.85;4.25;;;;;;;;;;5035096;28;20048;-84
2021/05/08 08:09:59;;;;;;;6.90;4.72;;;;;;;;;;5050514;28;20095;-85
2021/05/08 08:12:25;;;;;;;7.80;5.28;;;;;;;;;;5050609;28;20044;-85
2021/05/08 08:14:51;;;;;;;8.40;5.30;;;;;;;;;;5050407;28;20037;-84
2021/05/08 08:17:17;;;;;;;6.88;5.45;;;;;;;;;;5034874;28;20033;-85
2021/05/08 08:19:47;;;;;;;7.47;5.80;;;;;;;;;;5050341;28;20049;-85
2021/05/08 08:22:14;;;;;;;6.88;5.85;;;;;;;;;;5050219;28;20037;-85
2021/05/08 08:24:40;;;;;;;9.00;5.57;;;;;;;;;;5050285;28;20116;-84
2021/05/08 08:27:06;;;;;;;7.53;5.72;;;;;;;;;;5050080;28;20176;-84
2021/05/08 08:29:32;;;;;;;7.32;5.63;;;;;;;;;;5050222;28;20476;-85
2021/05/08 08:31:58;;;;;;;7.70;5.55;;;;;;;;;;5034734;28;20048;-84
2021/05/08 08:34:24;;;;;;;7.32;5.47;;;;;;;;;;5050355;28;20041;-84
2021/05/08 08:36:50;;;;;;;7.20;4.97;;;;;;;;;;5049898;28;20099;-83
2021/05/08 08:39:16;;;;;;;7.15;4.95;;;;;;;;;;5049728;28;20057;-84
2021/05/08 08:41:42;;;;;;;6.28;4.78;;;;;;;;;;5049964;28;20045;-85
2021/05/08 08:44:11;;;;;;;5.10;4.55;;;;;;;;;;5050001;28;20040;-84
2021/05/08 08:46:39;;;;;;;5.80;4.53;;;;;;;;;;5049278;28;20045;-83
2021/05/08 08:49:05;;;;;;;6.15;4.35;;;;;;;;;;5049788;28;20418;-84
2021/05/08 08:51:31;;;;;;;5.68;4.28;;;;;;;;;;5049798;28;20044;-84
2021/05/08 08:53:58;;;;;;;5.53;4.28;;;;;;;;;;5049711;28;20046;-84
2021/05/08 08:56:24;;;;;;;5.45;4.20;;;;;;;;;;5049588;28;20041;-84
2021/05/08 08:58:56;;;;;;;9.07;4.30;;;;;;;;;;5049559;28;20045;-84
2021/05/08 09:01:22;;;;;;;7.63;4.00;;;;;;;;;;5048844;28;20120;-85
2021/05/08 09:03:48;;;;;;;5.43;3.95;;;;;;;;;;5049577;28;20065;-85
2021/05/08 09:06:14;;;;;;;6.55;4.28;;;;;;;;;;5049394;28;20041;-84
2021/05/08 09:08:40;;;;;;;6.63;4.55;;;;;;;;;;5033114;28;20048;-85
2021/05/08 09:11:19;;;;;;;5.82;4.47;;;;;;;;;;5049415;28;20120;-85
2021/05/08 09:13:45;;;;;;;8.68;4.80;;;;;;;;;;5048415;28;20076;-84
2021/05/08 09:16:11;;;;;;;8.75;5.00;;;;;;;;;;5049075;28;20040;-84
2021/05/08 09:18:38;;;;;;;7.90;5.10;;;;;;;;;;5033929;28;20060;-84
2021/05/08 09:21:07;;;;;;;11.40;4.85;;;;;;;;;;5049042;28;20043;-84
2021/05/08 09:23:37;;;;;;;8.00;4.40;;;;;;;;;;5048990;28;20045;-85
2021/05/08 09:26:05;;;;;;;8.20;4.40;;;;;;;;;;5048990;28;20347;-85
2021/05/08 09:28:31;;;;;;;8.20;5.38;;;;;;;;;;5033693;28;20049;-84
2021/05/08 09:30:58;;;;;;;9.88;5.70;;;;;;;;;;5033761;28;20041;-84
2021/05/08 09:33:25;;;;;;;12.50;6.30;;;;;;;;;;5048835;28;20041;-84
2021/05/08 09:36:01;;;;;;;10.80;6.15;;;;;;;;;;5048698;28;20048;-84
2021/05/08 09:38:37;;;;;;;11.20;6.22;;;;;;;;;;5033673;28;20120;-84
2021/05/08 09:41:04;;;;;;;13.05;7.32;;;;;;;;;;5048679;28;20110;-85
2021/05/08 09:43:30;;;;;;;10.85;6.90;;;;;;;;;;5048881;28;20029;-85
2021/05/08 09:45:57;;;;;;;10.85;6.03;;;;;;;;;;5048816;28;20544;-84
2021/05/08 09:48:32;;;;;;;13.18;6.43;;;;;;;;;;5048688;28;20051;-84
2021/05/08 09:51:14;;;;;;;13.25;7.63;;;;;;;;;;5033446;28;20037;-85
2021/05/08 09:53:40;;;;;;;12.80;7.60;;;;;;;;;;5033188;28;20045;-84
2021/05/08 09:56:07;;;;;;;11.02;7.28;;;;;;;;;;5048145;28;20053;-85
2021/05/08 09:58:33;;;;;;;12.48;7.53;;;;;;;;;;5048644;28;20053;-84
2021/05/08 10:00:59;;;;;;;16.05;7.68;;;;;;;;;;5048468;28;20033;-84
2021/05/08 10:03:26;;;;;;;14.90;7.45;;;;;;;;;;5048384;28;20044;-84
2021/05/08 10:05:58;;;;;;;13.77;8.60;;;;;;;;;;5048266;28;20316;-84
2021/05/08 10:08:24;;;;;;;12.00;7.47;;;;;;;;;;5033012;28;20041;-84
2021/05/08 10:10:50;;;;;;;11.52;7.80;;;;;;;;;;5031603;28;20064;-85
2021/05/08 10:13:16;;;;;;;14.18;8.43;;;;;;;;;;5048261;28;20044;-83
2021/05/08 10:15:42;;;;;;;10.40;7.47;;;;;;;;;;5048073;28;20092;-85
2021/05/08 10:18:11;;;;;;;14.80;8.80;;;;;;;;;;5048010;28;20042;-84
2021/05/08 10:20:38;;;;;;;13.45;8.38;;;;;;;;;;5031338;28;20063;-85
2021/05/08 10:23:13;;;;;;;15.57;8.60;;;;;;;;;;5048006;28;20083;-84
2021/05/08 10:25:42;;;;;;;14.65;7.88;;;;;;;;;;5047956;28;20052;-84
2021/05/08 10:28:08;;;;;;;13.27;8.30;;;;;;;;;;5047943;28;20052;-84
2021/05/08 10:30:42;;;;;;;13.75;8.35;;;;;;;;;;5047796;28;20045;-83
2021/05/08 10:33:08;;;;;;;14.52;9.55;;;;;;;;;;5047776;28;20119;-84
2021/05/08 10:35:37;;;;;;;14.25;8.73;;;;;;;;;;5047447;28;20409;-84
2021/05/08 10:38:19;;;;;;;15.60;8.82;;;;;;;;;;5031145;28;20199;-84
2021/05/08 10:40:49;;;;;;;14.63;8.00;;;;;;;;;;5046959;28;20062;-85
2021/05/08 10:43:34;;;;;;;14.27;8.20;;;;;;;;;;5047707;28;20121;-85
2021/05/08 10:46:00;;;;;;;14.30;8.52;;;;;;;;;;5032369;28;20080;-85
2021/05/08 10:48:26;;;;;;;13.32;8.10;;;;;;;;;;5032296;28;20404;-83
2021/05/08 10:50:57;;;;;;;14.23;8.23;;;;;;;;;;5047533;28;20187;-85
2021/05/08 10:53:35;;;;;;;14.35;8.48;;;;;;;;;;5047256;28;20124;-84
2021/05/08 10:56:01;;;;;;;17.42;8.40;;;;;;;;;;5047436;28;20110;-83
2021/05/08 10:58:29;;;;;;;14.57;8.73;;;;;;;;;;5047328;28;20046;-84
2021/05/08 11:00:56;;;;;;;16.27;8.60;;;;;;;;;;5047520;28;20363;-85
2021/05/08 11:03:41;;;;;;;13.25;9.27;;;;;;;;;;5047361;28;20037;-83
2021/05/08 11:06:10;;;;;;;15.55;9.13;;;;;;;;;;5030822;28;20049;-84
2021/05/08 11:08:36;;;;;;;17.08;8.15;;;;;;;;;;5047447;28;20427;-84
2021/05/08 11:11:03;;;;;;;13.80;8.30;;;;;;;;;;5047553;28;20041;-84
2021/05/08 11:13:32;;;;;;;15.90;8.93;;;;;;;;;;5047242;28;20124;-84
2021/05/08 11:16:07;;;;;;;15.50;8.52;;;;;;;;;;5046895;28;20129;-85
2021/05/08 11:18:42;;;;;;;16.35;8.40;;;;;;;;;;5047328;28;20485;-84
2021/05/08 11:21:08;;;;;;;17.40;8.82;;;;;;;;;;5032068;28;20095;-85
2021/05/08 11:23:47;;;;;;;14.27;8.32;;;;;;;;;;5031981;28;20042;-85
2021/05/08 11:26:28;;;;;;;15.20;8.30;;;;;;;;;;5047214;28;20064;-85
2021/05/08 11:29:19;;;;;;;12.02;7.80;;;;;;;;;;5031934;28;20045;-85
2021/05/08 11:31:48;;;;;;;13.60;7.80;;;;;;;;;;5030722;28;20041;-84
2021/05/08 11:34:20;;;;;;;17.75;8.38;;;;;;;;;;5031848;28;20041;-85
2021/05/08 11:36:56;;;;;;;18.85;8.68;;;;;;;;;;5034230;28;20112;-84
2021/05/08 11:39:24;;;;;;;17.83;8.88;;;;;;;;;;5035478;28;20389;-84
2021/05/08 11:41:53;;;;;;;15.43;7.85;;;;;;;;;;5035718;28;20073;-84
2021/05/08 11:44:29;;;;;;;10.05;5.53;;;;;;;;;;5035692;28;20048;-85
2021/05/08 11:46:58;;;;;;;9.35;6.10;;;;;;;;;;5050841;28;20092;-85
2021/05/08 11:49:34;;;;;;;8.90;6.03;;;;;;;;;;5034226;28;20060;-84
2021/05/08 11:52:01;;;;;;;10.68;6.10;;;;;;;;;;5050788;28;20520;-84
2021/05/08 11:54:29;;;;;;;18.00;10.85;;;;;;;;;;5050792;28;20037;-85
2021/05/08 11:56:55;;;;;;;7.95;5.32;;;;;;;;;;5050632;28;20038;-85
2021/05/08 11:59:32;;;;;;;50.13;21.60;;;;;;;;;;5050514;28;20428;-84
2021/05/08 12:02:17;;;;;;;28.67;12.52;;;;;;;;;;5050819;28;20041;-85
2021/05/08 12:04:47;;;;;;;20.52;8.77;;;;;;;;;;5034255;28;20060;-85
2021/05/08 12:07:14;;;;;;;20.02;10.43;;;;;;;;;;5050510;28;20041;-84
2021/05/08 12:09:40;;;;;;;17.50;10.10;;;;;;;;;;5050655;28;20045;-84
2021/05/08 12:12:06;;;;;;;14.40;8.38;;;;;;;;;;5050672;28;20037;-84
2021/05/08 12:14:41;;;;;;;8.30;4.80;;;;;;;;;;5050571;28;20060;-84
2021/05/08 12:17:08;;;;;;;9.10;4.07;;;;;;;;;;5050447;28;20049;-84
2021/05/08 12:19:34;;;;;;;11.75;5.65;;;;;;;;;;5050484;28;20656;-85
2021/05/08 12:22:00;;;;;;;17.50;8.90;;;;;;;;;;5050468;28;20048;-85
2021/05/08 12:24:26;;;;;;;7.22;4.45;;;;;;;;;;5050297;28;20495;-85
2021/05/08 12:26:52;;;;;;;7.07;4.93;;;;;;;;;;5050113;28;20048;-85
2021/05/08 12:29:18;;;;;;;6.55;4.68;;;;;;;;;;5034948;28;20087;-85
2021/05/08 12:31:46;;;;;;;10.13;6.13;;;;;;;;;;5050019;28;20069;-84
2021/05/08 12:34:12;;;;;;;8.55;5.30;;;;;;;;;;5050161;28;20038;-85
2021/05/08 12:36:40;;;;;;;25.40;15.77;;;;;;;;;;5050071;28;20072;-84
2021/05/08 12:39:19;;;;;;;11.95;6.38;;;;;;;;;;5049647;28;20460;-85
2021/05/08 12:41:53;;;;;;;7.82;5.60;;;;;;;;;;5049984;28;20049;-85
2021/05/08 12:44:26;;;;;;;8.85;5.80;;;;;;;;;;5049882;28;20037;-84
2021/05/08 12:46:53;;;;;;;10.65;6.65;;;;;;;;;;5049289;28;20041;-84
2021/05/08 12:49:20;;;;;;;11.63;5.35;;;;;;;;;;5049410;28;20033;-84
2021/05/08 12:51:47;;;;;;;6.72;5.20;;;;;;;;;;5049603;28;20037;-85
2021/05/08 12:54:45;;;;;;;7.10;5.25;;;;;;;;;;5049800;28;20103;-84
2021/05/08 12:57:12;;;;;;;7.57;5.30;;;;;;;;;;5032354;28;20061;-85
2021/05/08 12:59:40;;;;;;;8.77;5.22;;;;;;;;;;5049770;28;20042;-83
2021/05/08 13:02:19;;;;;;;8.05;5.80;;;;;;;;;;5049699;28;20116;-85
2021/05/08 13:04:46;;;;;;;9.35;5.57;;;;;;;;;;5049397;28;20038;-85
2021/05/08 13:07:30;;;;;;;6.70;5.00;;;;;;;;;;5049173;28;20121;-84
2021/05/08 13:10:15;;;;;;;8.25;4.82;;;;;;;;;;5048984;28;20091;-85
2021/05/08 13:12:41;;;;;;;9.68;4.93;;;;;;;;;;5034167;28;20043;-85
2021/05/08 13:15:11;;;;;;;6.80;4.28;;;;;;;;;;5049497;28;20088;-84
2021/05/08 13:17:40;;;;;;;13.27;7.13;;;;;;;;;;5049284;28;20128;-84
2021/05/08 13:20:07;;;;;;;8.38;5.70;;;;;;;;;;5049284;28;20037;-84
2021/05/08 13:22:35;;;;;;;9.13;4.97;;;;;;;;;;5049165;28;20048;-84
2021/05/08 13:25:01;;;;;;;7.75;4.82;;;;;;;;;;5048676;28;20045;-84
2021/05/08 13:27:27;;;;;;;5.63;4.43;;;;;;;;;;5049138;28;20037;-84
2021/05/08 13:29:53;;;;;;;5.18;4.13;;;;;;;;;;5048979;28;20049;-84
2021/05/08 13:32:19;;;;;;;6.55;4.80;;;;;;;;;;5049148;28;20489;-84
2021/05/08 13:34:46;;;;;;;6.45;4.50;;;;;;;;;;5049100;28;20042;-84
2021/05/08 13:37:12;;;;;;;8.13;5.80;;;;;;;;;;5048904;28;20049;-84
2021/05/08 13:39:38;;;;;;;8.80;5.78;;;;;;;;;;5033545;28;20181;-84
2021/05/08 13:42:04;;;;;;;8.57;5.65;;;;;;;;;;5033444;28;20552;-83
2021/05/08 13:44:30;;;;;;;7.28;5.57;;;;;;;;;;5048702;28;20069;-84
2021/05/08 13:46:56;;;;;;;10.52;5.60;;;;;;;;;;5032171;28;20096;-84
2021/05/08 13:49:22;;;;;;;9.90;7.20;;;;;;;;;;5033368;28;20398;-84
2021/05/08 13:51:48;;;;;;;9.88;6.15;;;;;;;;;;5048667;28;20034;-84
2021/05/08 13:54:14;;;;;;;12.95;7.40;;;;;;;;;;5048662;28;20046;-84
2021/05/08 13:56:40;;;;;;;11.13;7.05;;;;;;;;;;5048643;28;20473;-84
2021/05/08 13:59:06;;;;;;;9.95;6.80;;;;;;;;;;5032734;28;20048;-85
2021/05/08 14:01:33;;;;;;;11.57;6.85;;;;;;;;;;5048335;28;20181;-85
2021/05/08 14:03:59;;;;;;;11.07;7.45;;;;;;;;;;5048586;28;20196;-85
2021/05/08 14:06:25;;;;;;;10.80;7.57;;;;;;;;;;5048322;28;20099;-84
2021/05/08 14:08:51;;;;;;;9.00;7.05;;;;;;;;;;5048413;28;20041;-85
2021/05/08 14:11:17;;;;;;;9.45;7.30;;;;;;;;;;5048482;28;20538;-84
2021/05/08 14:13:43;;;;;;;11.23;7.22;;;;;;;;;;5048200;28;20117;-84
2021/05/08 14:16:10;;;;;;;9.95;7.43;;;;;;;;;;5048409;28;20112;-85
2021/05/08 14:18:36;;;;;;;9.98;7.65;;;;;;;;;;5031716;28;20061;-84
2021/05/08 14:21:02;;;;;;;10.07;7.97;;;;;;;;;;5048178;28;20127;-85
2021/05/08 14:23:28;;;;;;;11.57;8.13;;;;;;;;;;5048134;28;20037;-85
2021/05/08 14:25:54;;;;;;;13.20;8.60;;;;;;;;;;5032694;28;20052;-84
2021/05/08 14:28:20;;;;;;;10.55;7.85;;;;;;;;;;5047806;28;20381;-85
2021/05/08 14:30:46;;;;;;;13.80;8.23;;;;;;;;;;5047975;28;20044;-84
2021/05/08 14:33:12;;;;;;;11.73;8.98;;;;;;;;;;5048060;28;20160;-85
2021/05/08 14:35:38;;;;;;;10.82;7.40;;;;;;;;;;5047845;28;20043;-86
2021/05/08 14:38:05;;;;;;;10.68;8.30;;;;;;;;;;5047782;28;20103;-86
2021/05/08 14:40:31;;;;;;;11.60;8.63;;;;;;;;;;5047319;28;20045;-86